首页
METAR-TAF:

METAR-TAF

机场 :

L.O. Simenstad Municipal Airport

Osceola, 威斯康辛州, 美国

纬度: 45-18-31N, 经度: 092-41-24W, 海拔: 275米

当前天气观测

该预报发布于15分钟前的15:15 UTC
风速3节,风向西
温度 20°C
湿度 64%
气压 1016 hPa
能見度: 16.1公里
散云层高于2800英尺
多云层高于3400英尺

METAR: KOEO 181515Z AUTO 28003KT 10SM SCT028 BKN034 20/13 A3000 RMK AO2 T01980126

时间: 10:30 (15:30 UTC)


TAF: 丢失

超过4000个机场的气象观测和天气预报(METAR&TAF报告)。

可查询的气象台以黄色和红色小点在地图上表示。

将鼠标移到小点上方,可查看气象台名称。

然后点击查看天气观测和预报。

如需切换地图:点击带黑十字的绿色按钮放大地图;点击带横线的绿色按钮缩小地图;或者点击绿色箭头查看邻近地区的地图。


METAR-TAF: